Time;durP1;ratioP1;P1;durP2;ratioP2;P2;SDS_P1;SDS_P2;PMS_P1;PMS_P2;Temp;Humidity;BMP_temperature;BMP_pressure;BME280_temperature;BME280_humidity;BME280_pressure;Samples;Min_cycle;Max_cycle;Signal;HPM_P1;HPM_P2
2021/12/30 00:02:00;;;;;;;0.95;0.30;;;;;;;;;;5035943;28;20027;-56
2021/12/30 00:04:26;;;;;;;0.43;0.20;;;;;;;;;;5032657;28;20064;-54
2021/12/30 00:06:52;;;;;;;0.82;0.40;;;;;;;;;;5032502;28;20117;-50
2021/12/30 00:09:20;;;;;;;0.88;0.45;;;;;;;;;;5031864;28;20060;-55
2021/12/30 00:11:46;;;;;;;0.40;0.20;;;;;;;;;;5032425;28;20060;-55
2021/12/30 00:14:12;;;;;;;0.57;0.22;;;;;;;;;;5032166;28;20490;-55
2021/12/30 00:16:38;;;;;;;0.82;0.52;;;;;;;;;;5032563;28;20034;-54
2021/12/30 00:19:04;;;;;;;1.27;0.50;;;;;;;;;;5031672;28;20387;-55
2021/12/30 00:21:30;;;;;;;1.38;0.30;;;;;;;;;;5032739;28;20040;-56
2021/12/30 00:23:56;;;;;;;0.45;0.15;;;;;;;;;;5031989;28;20044;-56
2021/12/30 00:26:22;;;;;;;0.63;0.30;;;;;;;;;;5032189;28;20033;-56
2021/12/30 00:28:49;;;;;;;0.47;0.20;;;;;;;;;;5031385;28;20034;-56
2021/12/30 00:31:15;;;;;;;0.98;0.30;;;;;;;;;;5032410;28;20101;-55
2021/12/30 00:33:41;;;;;;;0.32;0.20;;;;;;;;;;5031954;28;20033;-55
2021/12/30 00:36:08;;;;;;;0.45;0.22;;;;;;;;;;5032112;28;20041;-54
2021/12/30 00:38:35;;;;;;;0.98;0.43;;;;;;;;;;5031335;28;20041;-56
2021/12/30 00:41:01;;;;;;;0.38;0.28;;;;;;;;;;5032130;28;20499;-54
2021/12/30 00:43:27;;;;;;;0.90;0.45;;;;;;;;;;5031851;28;20060;-55
2021/12/30 00:45:53;;;;;;;0.85;0.40;;;;;;;;;;5032235;28;20055;-55
2021/12/30 00:48:19;;;;;;;1.27;0.63;;;;;;;;;;5031376;28;20034;-54
2021/12/30 00:50:46;;;;;;;3.70;0.73;;;;;;;;;;5032001;28;20033;-56
2021/12/30 00:53:12;;;;;;;1.35;0.50;;;;;;;;;;5031868;28;20032;-55
2021/12/30 00:55:39;;;;;;;3.08;0.65;;;;;;;;;;5031677;28;20482;-55
2021/12/30 00:58:05;;;;;;;4.55;0.85;;;;;;;;;;5048198;28;20068;-53
2021/12/30 01:00:31;;;;;;;1.60;0.70;;;;;;;;;;5051893;28;20379;-53
2021/12/30 01:02:57;;;;;;;1.10;0.47;;;;;;;;;;5036213;28;20379;-52
2021/12/30 01:05:23;;;;;;;1.83;0.57;;;;;;;;;;5031719;28;20025;-55
2021/12/30 01:07:49;;;;;;;1.35;0.40;;;;;;;;;;5031085;28;20178;-55
2021/12/30 01:10:20;;;;;;;1.85;1.00;;;;;;;;;;5031638;28;20486;-51
2021/12/30 01:12:46;;;;;;;1.38;0.60;;;;;;;;;;5032110;28;20029;-54
2021/12/30 01:15:12;;;;;;;1.02;0.65;;;;;;;;;;5031830;28;20423;-55
2021/12/30 01:17:46;;;;;;;0.65;0.30;;;;;;;;;;5031971;28;20067;-55
2021/12/30 01:20:13;;;;;;;1.90;0.73;;;;;;;;;;5031959;28;20048;-55
2021/12/30 01:22:39;;;;;;;1.08;0.50;;;;;;;;;;5031631;28;20464;-55
2021/12/30 01:25:11;;;;;;;0.90;0.45;;;;;;;;;;5031257;28;20025;-55
2021/12/30 01:27:39;;;;;;;1.83;0.40;;;;;;;;;;5031847;28;20116;-54
2021/12/30 01:30:06;;;;;;;1.63;0.70;;;;;;;;;;5031070;28;20044;-51
2021/12/30 01:32:32;;;;;;;1.38;0.55;;;;;;;;;;5031770;28;20125;-54
2021/12/30 01:35:00;;;;;;;2.25;0.57;;;;;;;;;;5031555;28;20033;-55
2021/12/30 01:37:26;;;;;;;1.20;0.55;;;;;;;;;;5032081;28;20022;-53
2021/12/30 01:39:53;;;;;;;0.88;0.65;;;;;;;;;;5030602;28;20092;-52
2021/12/30 01:42:19;;;;;;;0.98;0.55;;;;;;;;;;5031662;28;20040;-54
2021/12/30 01:44:45;;;;;;;1.63;0.68;;;;;;;;;;5031587;28;20030;-55
2021/12/30 01:47:12;;;;;;;1.05;0.63;;;;;;;;;;5034925;28;20471;-56
2021/12/30 01:49:38;;;;;;;0.60;0.30;;;;;;;;;;5034381;28;20048;-55
2021/12/30 01:52:04;;;;;;;0.50;0.20;;;;;;;;;;5034907;28;20027;-55
2021/12/30 01:54:30;;;;;;;1.95;0.65;;;;;;;;;;5035026;28;20477;-55
2021/12/30 01:56:59;;;;;;;1.00;0.40;;;;;;;;;;5042643;28;20107;-55
2021/12/30 01:59:25;;;;;;;1.23;0.50;;;;;;;;;;5054258;28;20033;-55
2021/12/30 02:01:56;;;;;;;0.80;0.30;;;;;;;;;;5047956;28;20497;-53
2021/12/30 02:04:22;;;;;;;;;;;;;;;;;;5035171;28;20387;-55
2021/12/30 02:06:48;;;;;;;2.13;0.60;;;;;;;;;;5034498;28;20016;-54
2021/12/30 02:09:15;;;;;;;0.65;0.30;;;;;;;;;;5034164;28;20033;-53
2021/12/30 02:11:42;;;;;;;1.42;0.70;;;;;;;;;;5034548;28;20391;-54
2021/12/30 02:14:08;;;;;;;1.92;0.43;;;;;;;;;;5034635;28;20399;-56
2021/12/30 02:16:34;;;;;;;0.98;0.50;;;;;;;;;;5034517;28;20037;-54
2021/12/30 02:19:00;;;;;;;2.08;0.73;;;;;;;;;;5033818;28;20029;-52
2021/12/30 02:21:26;;;;;;;1.20;0.43;;;;;;;;;;5034750;28;20029;-52
2021/12/30 02:23:52;;;;;;;1.00;0.50;;;;;;;;;;5034524;28;20037;-55
2021/12/30 02:26:18;;;;;;;2.50;0.70;;;;;;;;;;5034300;28;20034;-55
2021/12/30 02:28:45;;;;;;;3.35;0.73;;;;;;;;;;5033629;28;20459;-55
2021/12/30 02:31:18;;;;;;;1.25;0.50;;;;;;;;;;5034581;28;20383;-54
2021/12/30 02:33:45;;;;;;;1.40;0.68;;;;;;;;;;5034120;28;20032;-55
2021/12/30 02:36:11;;;;;;;1.02;0.68;;;;;;;;;;5034471;28;20111;-55
2021/12/30 02:38:37;;;;;;;1.52;0.85;;;;;;;;;;5033488;28;20525;-56
2021/12/30 02:41:03;;;;;;;4.28;0.73;;;;;;;;;;5034067;28;20036;-55
2021/12/30 02:43:31;;;;;;;0.50;0.30;;;;;;;;;;5034146;28;20036;-56
2021/12/30 02:45:58;;;;;;;5.57;0.47;;;;;;;;;;5033889;28;20116;-56
2021/12/30 02:48:25;;;;;;;0.82;0.50;;;;;;;;;;5033242;28;20037;-55
2021/12/30 02:50:53;;;;;;;2.15;0.75;;;;;;;;;;5034048;28;20030;-54
2021/12/30 02:53:20;;;;;;;0.93;0.35;;;;;;;;;;5034060;28;20030;-56
2021/12/30 02:55:47;;;;;;;0.93;0.45;;;;;;;;;;5033824;28;20338;-56
2021/12/30 02:58:13;;;;;;;1.35;0.50;;;;;;;;;;5051480;28;20369;-56
2021/12/30 03:00:40;;;;;;;1.45;0.60;;;;;;;;;;5053528;28;20364;-55
2021/12/30 03:03:06;;;;;;;2.08;0.85;;;;;;;;;;5050292;28;20029;-55
2021/12/30 03:05:32;;;;;;;1.70;0.63;;;;;;;;;;5053507;28;20029;-52
2021/12/30 03:07:58;;;;;;;1.27;0.50;;;;;;;;;;5053130;28;20025;-53
2021/12/30 03:10:25;;;;;;;2.08;0.68;;;;;;;;;;5053674;28;20040;-55
2021/12/30 03:12:56;;;;;;;0.85;0.43;;;;;;;;;;5053790;28;20427;-56
2021/12/30 03:15:22;;;;;;;0.40;0.30;;;;;;;;;;5053123;28;20044;-55
2021/12/30 03:17:48;;;;;;;3.10;0.57;;;;;;;;;;5052902;28;20321;-55
2021/12/30 03:20:14;;;;;;;1.27;0.60;;;;;;;;;;5053421;28;20029;-54
2021/12/30 03:22:41;;;;;;;0.63;0.22;;;;;;;;;;5053254;28;20033;-55
2021/12/30 03:25:08;;;;;;;2.40;0.80;;;;;;;;;;5053010;28;20025;-54
2021/12/30 03:27:34;;;;;;;1.95;0.63;;;;;;;;;;5053336;28;20082;-52
2021/12/30 03:30:00;;;;;;;2.60;0.65;;;;;;;;;;5052366;28;20037;-54
2021/12/30 03:32:26;;;;;;;2.90;0.60;;;;;;;;;;5053110;28;20083;-53
2021/12/30 03:34:52;;;;;;;1.33;0.73;;;;;;;;;;5052903;28;20086;-53
2021/12/30 03:37:18;;;;;;;2.08;0.90;;;;;;;;;;5053347;28;20218;-55
2021/12/30 03:39:46;;;;;;;1.17;0.65;;;;;;;;;;5051724;28;20112;-54
2021/12/30 03:42:12;;;;;;;1.65;0.60;;;;;;;;;;5052600;28;20029;-54
2021/12/30 03:44:38;;;;;;;2.35;0.73;;;;;;;;;;5052711;28;20032;-55
2021/12/30 03:47:06;;;;;;;0.70;0.30;;;;;;;;;;5052892;28;20451;-54
2021/12/30 03:49:32;;;;;;;3.00;0.43;;;;;;;;;;5052060;28;20421;-52
2021/12/30 03:51:58;;;;;;;2.65;0.65;;;;;;;;;;5052621;28;20029;-55
2021/12/30 03:54:24;;;;;;;2.80;1.25;;;;;;;;;;5052467;28;20025;-55
2021/12/30 03:56:50;;;;;;;3.53;1.30;;;;;;;;;;5045686;28;20029;-54
2021/12/30 03:59:16;;;;;;;1.20;0.60;;;;;;;;;;5031796;28;20037;-53
2021/12/30 04:01:42;;;;;;;2.50;1.23;;;;;;;;;;5035763;28;20025;-55
2021/12/30 04:04:08;;;;;;;2.55;0.95;;;;;;;;;;5032523;28;20036;-55
2021/12/30 04:06:34;;;;;;;3.40;1.05;;;;;;;;;;5032511;28;20033;-50
2021/12/30 04:09:00;;;;;;;1.38;0.63;;;;;;;;;;5031506;28;20022;-55
2021/12/30 04:11:28;;;;;;;2.40;0.95;;;;;;;;;;5032332;28;20041;-53
2021/12/30 04:13:55;;;;;;;1.83;0.68;;;;;;;;;;5032097;28;20033;-55
2021/12/30 04:16:20;;;;;;;1.98;0.73;;;;;;;;;;5032429;28;20034;-52
2021/12/30 04:18:48;;;;;;;3.40;0.82;;;;;;;;;;5031874;28;20028;-54
2021/12/30 04:21:16;;;;;;;2.10;0.75;;;;;;;;;;5032229;28;20497;-55
2021/12/30 04:23:42;;;;;;;5.78;0.73;;;;;;;;;;5032249;28;20036;-55
2021/12/30 04:26:08;;;;;;;0.88;0.43;;;;;;;;;;5032061;28;20033;-54
2021/12/30 04:28:34;;;;;;;1.00;0.60;;;;;;;;;;5031510;28;20040;-54
2021/12/30 04:31:00;;;;;;;6.22;0.85;;;;;;;;;;5025477;28;20443;-53
2021/12/30 04:33:26;;;;;;;1.90;0.80;;;;;;;;;;5031795;28;20029;-55
2021/12/30 04:35:56;;;;;;;4.00;0.82;;;;;;;;;;5031930;28;20090;-52
2021/12/30 04:38:22;;;;;;;1.13;0.65;;;;;;;;;;5031321;28;20034;-55
2021/12/30 04:40:48;;;;;;;0.98;0.43;;;;;;;;;;5031689;28;20049;-53
2021/12/30 04:43:14;;;;;;;0.63;0.30;;;;;;;;;;5031559;28;20463;-55
2021/12/30 04:45:40;;;;;;;1.80;0.50;;;;;;;;;;5029286;28;20407;-55
2021/12/30 04:48:06;;;;;;;1.00;0.50;;;;;;;;;;5031141;28;20463;-56
2021/12/30 04:50:32;;;;;;;0.95;0.40;;;;;;;;;;5032123;28;20032;-54
2021/12/30 04:52:58;;;;;;;0.95;0.50;;;;;;;;;;5031739;28;20029;-55
2021/12/30 04:55:24;;;;;;;0.30;0.20;;;;;;;;;;5031519;28;20022;-55
2021/12/30 04:57:50;;;;;;;2.53;0.63;;;;;;;;;;5045244;28;20105;-56
2021/12/30 05:00:16;;;;;;;1.60;0.68;;;;;;;;;;5051587;28;20437;-56
2021/12/30 05:03:24;;;;;;;0.75;0.30;;;;;;;;;;5038020;28;20039;-56
2021/12/30 05:05:31;;;;;;;0.30;0.20;;;;;;;;;;5033678;28;20099;-56
2021/12/30 05:07:57;;;;;;;0.75;0.30;;;;;;;;;;5030879;28;20033;-54
2021/12/30 05:10:23;;;;;;;1.25;0.55;;;;;;;;;;5031904;28;20032;-53
2021/12/30 05:12:49;;;;;;;0.80;0.30;;;;;;;;;;5045852;28;20037;-51
2021/12/30 05:15:15;;;;;;;1.05;0.45;;;;;;;;;;5051139;28;20022;-53
2021/12/30 05:17:42;;;;;;;1.52;0.60;;;;;;;;;;5051535;28;20028;-54
2021/12/30 05:20:08;;;;;;;0.60;0.22;;;;;;;;;;5051606;28;20052;-55
2021/12/30 05:22:34;;;;;;;2.05;0.60;;;;;;;;;;5055524;28;20025;-55
2021/12/30 05:25:00;;;;;;;0.75;0.50;;;;;;;;;;5055630;28;20036;-53
2021/12/30 05:27:26;;;;;;;0.95;0.55;;;;;;;;;;5054699;28;20120;-54
2021/12/30 05:29:52;;;;;;;2.05;0.70;;;;;;;;;;5054372;28;20167;-55
2021/12/30 05:32:18;;;;;;;2.45;1.40;;;;;;;;;;5052557;28;20467;-56
2021/12/30 05:34:44;;;;;;;1.73;0.57;;;;;;;;;;5055263;28;20033;-55
2021/12/30 05:37:10;;;;;;;1.33;0.50;;;;;;;;;;5054915;28;20108;-54
2021/12/30 05:39:40;;;;;;;1.70;0.68;;;;;;;;;;5054328;28;20079;-55
2021/12/30 05:42:06;;;;;;;5.10;0.93;;;;;;;;;;5054915;28;20032;-53
2021/12/30 05:44:32;;;;;;;1.08;0.65;;;;;;;;;;5055064;28;20017;-53
2021/12/30 05:46:58;;;;;;;1.52;0.80;;;;;;;;;;5054766;28;20135;-56
2021/12/30 05:49:24;;;;;;;2.40;0.75;;;;;;;;;;5054315;28;20518;-55
2021/12/30 05:51:50;;;;;;;0.57;0.28;;;;;;;;;;5054993;28;20108;-55
2021/12/30 05:54:16;;;;;;;1.15;0.47;;;;;;;;;;5055228;28;20044;-54
2021/12/30 05:56:42;;;;;;;1.27;0.47;;;;;;;;;;5054778;28;20553;-56
2021/12/30 05:59:08;;;;;;;1.98;0.63;;;;;;;;;;5054168;28;20048;-55
2021/12/30 06:01:34;;;;;;;3.30;0.57;;;;;;;;;;5051183;28;20059;-55
2021/12/30 06:04:00;;;;;;;1.02;0.43;;;;;;;;;;5054633;28;20174;-53
2021/12/30 06:06:26;;;;;;;1.83;0.25;;;;;;;;;;5054619;28;20105;-56
2021/12/30 06:08:53;;;;;;;0.80;0.25;;;;;;;;;;5054009;28;20107;-56
2021/12/30 06:11:19;;;;;;;0.43;0.20;;;;;;;;;;5054608;28;20135;-56
2021/12/30 06:13:45;;;;;;;0.65;0.43;;;;;;;;;;5054434;28;20033;-53
2021/12/30 06:16:11;;;;;;;0.65;0.20;;;;;;;;;;5054243;28;20094;-55
2021/12/30 06:18:37;;;;;;;0.82;0.45;;;;;;;;;;5053665;28;20036;-55
2021/12/30 06:21:03;;;;;;;0.28;0.10;;;;;;;;;;5054360;28;20032;-55
2021/12/30 06:23:29;;;;;;;0.30;0.20;;;;;;;;;;5053990;28;20467;-53
2021/12/30 06:25:55;;;;;;;0.75;0.30;;;;;;;;;;5054310;28;20053;-53
2021/12/30 06:28:20;;;;;;;0.43;0.17;;;;;;;;;;5053083;28;20029;-55
2021/12/30 06:30:46;;;;;;;0.88;0.40;;;;;;;;;;5053915;28;20057;-55
2021/12/30 06:33:12;;;;;;;1.10;0.35;;;;;;;;;;5053631;28;20032;-55
2021/12/30 06:35:38;;;;;;;1.23;0.30;;;;;;;;;;5054151;28;20140;-54
2021/12/30 06:38:04;;;;;;;0.43;0.25;;;;;;;;;;5053177;28;20047;-55
2021/12/30 06:40:30;;;;;;;0.32;0.17;;;;;;;;;;5054240;28;20032;-55
2021/12/30 06:42:56;;;;;;;0.45;0.30;;;;;;;;;;5053823;28;20094;-55
2021/12/30 06:45:22;;;;;;;1.20;0.57;;;;;;;;;;5053826;28;20025;-56
2021/12/30 06:47:48;;;;;;;0.30;0.10;;;;;;;;;;5052658;28;20040;-55
2021/12/30 06:50:16;;;;;;;0.47;0.20;;;;;;;;;;5053895;28;20028;-55
2021/12/30 06:52:46;;;;;;;0.45;0.28;;;;;;;;;;5053635;28;20029;-55
2021/12/30 06:55:12;;;;;;;0.95;0.40;;;;;;;;;;5053606;28;20382;-55
2021/12/30 06:57:39;;;;;;;0.70;0.35;;;;;;;;;;5053450;28;20107;-56
2021/12/30 07:00:06;;;;;;;0.90;0.40;;;;;;;;;;5052705;28;20032;-54
2021/12/30 07:02:32;;;;;;;0.25;0.20;;;;;;;;;;5041195;28;20079;-55
2021/12/30 07:04:57;;;;;;;0.20;0.10;;;;;;;;;;5033917;28;20449;-55
2021/12/30 07:07:23;;;;;;;0.38;0.10;;;;;;;;;;5033970;28;20041;-55
2021/12/30 07:09:49;;;;;;;0.45;0.20;;;;;;;;;;5043308;28;20048;-55
2021/12/30 07:12:15;;;;;;;1.50;0.63;;;;;;;;;;5053483;28;20079;-54
2021/12/30 07:14:41;;;;;;;1.55;0.70;;;;;;;;;;5053104;28;20033;-56
2021/12/30 07:17:07;;;;;;;0.57;0.20;;;;;;;;;;5053121;28;20060;-55
2021/12/30 07:19:33;;;;;;;1.13;0.45;;;;;;;;;;5052631;28;20021;-55
2021/12/30 07:21:59;;;;;;;0.50;0.25;;;;;;;;;;5053400;28;20085;-55
2021/12/30 07:24:25;;;;;;;1.50;0.30;;;;;;;;;;5052821;28;20455;-56
2021/12/30 07:26:52;;;;;;;0.95;0.80;;;;;;;;;;5053175;28;20072;-51
2021/12/30 07:29:18;;;;;;;1.15;0.38;;;;;;;;;;5052226;28;20095;-57
2021/12/30 07:31:44;;;;;;;0.50;0.22;;;;;;;;;;5052949;28;20029;-56
2021/12/30 07:34:10;;;;;;;0.80;0.40;;;;;;;;;;5052892;28;20086;-56
2021/12/30 07:36:36;;;;;;;0.43;0.20;;;;;;;;;;5052841;28;20115;-56
2021/12/30 07:39:03;;;;;;;0.47;0.20;;;;;;;;;;5050769;28;20113;-57
2021/12/30 07:41:29;;;;;;;0.57;0.30;;;;;;;;;;5052945;28;20033;-56
2021/12/30 07:43:55;;;;;;;0.93;0.47;;;;;;;;;;5051754;28;20040;-56
2021/12/30 07:46:21;;;;;;;1.48;0.43;;;;;;;;;;5052399;28;20029;-52
2021/12/30 07:48:47;;;;;;;0.93;0.32;;;;;;;;;;5052421;28;20036;-55
2021/12/30 07:51:13;;;;;;;0.85;0.40;;;;;;;;;;5052683;28;20098;-56
2021/12/30 07:53:40;;;;;;;0.47;0.30;;;;;;;;;;5052989;28;20036;-58
2021/12/30 07:56:06;;;;;;;0.82;0.43;;;;;;;;;;5052451;28;20116;-57
2021/12/30 07:58:32;;;;;;;0.70;0.38;;;;;;;;;;5051821;28;20021;-57
2021/12/30 08:00:58;;;;;;;0.73;0.35;;;;;;;;;;5052371;28;20100;-57
2021/12/30 08:03:24;;;;;;;0.98;0.40;;;;;;;;;;5034964;28;20064;-57
2021/12/30 08:05:51;;;;;;;0.93;0.50;;;;;;;;;;5052447;28;20094;-57
2021/12/30 08:08:17;;;;;;;0.57;0.32;;;;;;;;;;5051619;28;20471;-57
2021/12/30 08:10:43;;;;;;;0.82;0.30;;;;;;;;;;5052720;28;20130;-56
2021/12/30 08:13:09;;;;;;;1.73;0.45;;;;;;;;;;5052430;28;20032;-58
2021/12/30 08:15:35;;;;;;;2.10;0.52;;;;;;;;;;5052039;28;20128;-56
2021/12/30 08:18:01;;;;;;;0.50;0.30;;;;;;;;;;5051633;28;20103;-58
2021/12/30 08:20:27;;;;;;;1.38;0.50;;;;;;;;;;5052469;28;20447;-58
2021/12/30 08:22:53;;;;;;;1.42;0.50;;;;;;;;;;5052320;28;20025;-56
2021/12/30 08:25:20;;;;;;;0.95;0.50;;;;;;;;;;5049084;28;20029;-57
2021/12/30 08:27:47;;;;;;;1.45;0.68;;;;;;;;;;5054316;28;20021;-58
2021/12/30 08:30:14;;;;;;;1.52;0.55;;;;;;;;;;5051866;28;20029;-58
2021/12/30 08:32:40;;;;;;;0.95;0.40;;;;;;;;;;5051927;28;20483;-58
2021/12/30 08:35:07;;;;;;;1.42;0.68;;;;;;;;;;5036023;28;20033;-57
2021/12/30 08:37:34;;;;;;;0.85;0.40;;;;;;;;;;5032186;28;20037;-56
2021/12/30 08:40:01;;;;;;;0.80;0.40;;;;;;;;;;5042401;28;20043;-55
2021/12/30 08:42:28;;;;;;;0.85;0.40;;;;;;;;;;5051408;28;20033;-57
2021/12/30 08:44:56;;;;;;;0.68;0.30;;;;;;;;;;5049913;28;20033;-57
2021/12/30 08:47:22;;;;;;;0.85;0.40;;;;;;;;;;5050466;28;20029;-55
2021/12/30 08:49:48;;;;;;;1.33;0.50;;;;;;;;;;5050785;28;20132;-57
2021/12/30 08:52:14;;;;;;;0.70;0.30;;;;;;;;;;5051672;28;20029;-54
2021/12/30 08:54:40;;;;;;;1.02;0.30;;;;;;;;;;5053006;28;20079;-57
2021/12/30 08:57:07;;;;;;;0.70;0.30;;;;;;;;;;5055183;28;20153;-54
2021/12/30 08:59:34;;;;;;;0.88;0.43;;;;;;;;;;5055062;28;20086;-58
2021/12/30 09:02:00;;;;;;;0.47;0.22;;;;;;;;;;5053210;28;20402;-57
2021/12/30 09:04:26;;;;;;;0.80;0.30;;;;;;;;;;5054376;28;20035;-57
2021/12/30 09:06:53;;;;;;;2.08;0.25;;;;;;;;;;5054587;28;20116;-58
2021/12/30 09:09:19;;;;;;;1.95;0.50;;;;;;;;;;5054562;28;20037;-57
2021/12/30 09:11:45;;;;;;;1.00;0.52;;;;;;;;;;5054858;28;20036;-55
2021/12/30 09:14:13;;;;;;;0.40;0.20;;;;;;;;;;5055363;28;20477;-56
2021/12/30 09:16:39;;;;;;;0.52;0.30;;;;;;;;;;5054340;28;20037;-56
2021/12/30 09:19:05;;;;;;;1.38;0.45;;;;;;;;;;5054781;28;20021;-56
2021/12/30 09:21:31;;;;;;;0.88;0.40;;;;;;;;;;5054944;28;20190;-57
2021/12/30 09:23:57;;;;;;;1.27;0.45;;;;;;;;;;5055775;28;20029;-56
2021/12/30 09:26:24;;;;;;;0.77;0.43;;;;;;;;;;5054286;28;20068;-56
2021/12/30 09:28:50;;;;;;;1.38;0.40;;;;;;;;;;5053673;28;20024;-56
2021/12/30 09:31:16;;;;;;;0.05;0.00;;;;;;;;;;5055273;28;20488;-57
2021/12/30 09:33:42;;;;;;;0.60;0.30;;;;;;;;;;5054977;28;20128;-57
2021/12/30 09:36:08;;;;;;;0.50;0.20;;;;;;;;;;5054613;28;20055;-57
2021/12/30 09:38:34;;;;;;;0.30;0.10;;;;;;;;;;5053124;28;20466;-57
2021/12/30 09:41:00;;;;;;;0.65;0.35;;;;;;;;;;5053102;28;20032;-57
2021/12/30 09:43:26;;;;;;;0.38;0.15;;;;;;;;;;5054480;28;20025;-57
2021/12/30 09:45:52;;;;;;;0.70;0.32;;;;;;;;;;5053637;28;20033;-57
2021/12/30 09:48:18;;;;;;;0.63;0.30;;;;;;;;;;5054283;28;20268;-56
2021/12/30 09:50:50;;;;;;;1.65;0.40;;;;;;;;;;5054310;28;20051;-57
2021/12/30 09:53:20;;;;;;;0.80;0.30;;;;;;;;;;5054524;28;20031;-57
2021/12/30 09:55:46;;;;;;;0.53;0.20;;;;;;;;;;5054498;28;20033;-57
2021/12/30 09:58:12;;;;;;;0.70;0.32;;;;;;;;;;5053266;28;20276;-55
2021/12/30 10:00:38;;;;;;;4.07;0.55;;;;;;;;;;5054075;28;20472;-56
2021/12/30 10:03:04;;;;;;;0.93;0.43;;;;;;;;;;5054130;28;20376;-57
2021/12/30 10:05:32;;;;;;;0.30;0.10;;;;;;;;;;5054027;28;20040;-56
2021/12/30 10:08:07;;;;;;;0.57;0.28;;;;;;;;;;5053319;28;20140;-57
2021/12/30 10:10:35;;;;;;;0.90;0.40;;;;;;;;;;5053949;28;20040;-57
2021/12/30 10:13:13;;;;;;;0.77;0.43;;;;;;;;;;5053998;28;20021;-57
2021/12/30 10:15:43;;;;;;;0.85;0.40;;;;;;;;;;5053962;28;20032;-57
2021/12/30 10:18:09;;;;;;;0.65;0.40;;;;;;;;;;5053019;28;20089;-57
2021/12/30 10:20:39;;;;;;;1.20;0.50;;;;;;;;;;5053304;28;20092;-57
2021/12/30 10:23:25;;;;;;;0.65;0.22;;;;;;;;;;5053130;28;20039;-57
2021/12/30 10:25:56;;;;;;;0.90;0.35;;;;;;;;;;5053807;28;20390;-57
2021/12/30 10:28:36;;;;;;;0.70;0.30;;;;;;;;;;5044714;28;20478;-58
2021/12/30 10:31:11;;;;;;;0.30;0.20;;;;;;;;;;5053292;28;20028;-57
2021/12/30 10:33:38;;;;;;;0.75;0.35;;;;;;;;;;5053268;28;20275;-57
2021/12/30 10:36:14;;;;;;;1.00;0.32;;;;;;;;;;5053300;28;20048;-54
2021/12/30 10:38:40;;;;;;;1.13;0.43;;;;;;;;;;5052550;28;20033;-57
2021/12/30 10:41:06;;;;;;;0.73;0.30;;;;;;;;;;5050493;28;20029;-57
2021/12/30 10:43:37;;;;;;;0.65;0.30;;;;;;;;;;5052375;28;20021;-57
2021/12/30 10:46:03;;;;;;;1.00;0.40;;;;;;;;;;5051003;28;20036;-55
2021/12/30 10:48:29;;;;;;;0.77;0.30;;;;;;;;;;5052744;28;20036;-56
2021/12/30 10:51:12;;;;;;;2.03;0.68;;;;;;;;;;5048789;28;20032;-57
2021/12/30 10:53:38;;;;;;;0.50;0.30;;;;;;;;;;5043820;28;20489;-57
2021/12/30 10:56:22;;;;;;;1.42;0.38;;;;;;;;;;5052294;28;20079;-57
2021/12/30 10:58:49;;;;;;;0.88;0.30;;;;;;;;;;5050687;28;20021;-54
2021/12/30 11:01:16;;;;;;;0.40;0.10;;;;;;;;;;5049067;28;20072;-56
2021/12/30 11:03:42;;;;;;;0.90;0.35;;;;;;;;;;5051108;28;20025;-57
2021/12/30 11:06:19;;;;;;;0.70;0.30;;;;;;;;;;5052117;28;20036;-57
2021/12/30 11:08:47;;;;;;;1.13;0.50;;;;;;;;;;5045992;28;20132;-57
2021/12/30 11:11:42;;;;;;;0.77;0.40;;;;;;;;;;5053341;28;20037;-56
2021/12/30 11:14:08;;;;;;;0.80;0.28;;;;;;;;;;5050699;28;20390;-55
2021/12/30 11:16:51;;;;;;;0.93;0.40;;;;;;;;;;5051623;28;20040;-57
2021/12/30 11:19:17;;;;;;;4.53;1.25;;;;;;;;;;5045454;28;20050;-57
2021/12/30 11:21:44;;;;;;;0.45;0.20;;;;;;;;;;5052568;28;20029;-57
2021/12/30 11:24:10;;;;;;;0.95;0.30;;;;;;;;;;5052467;28;20133;-57
2021/12/30 11:26:37;;;;;;;1.08;0.28;;;;;;;;;;5050118;28;20033;-56
2021/12/30 11:29:04;;;;;;;0.20;0.10;;;;;;;;;;5051972;28;20122;-57
2021/12/30 11:31:30;;;;;;;0.95;0.50;;;;;;;;;;5052718;28;20053;-57
2021/12/30 11:33:56;;;;;;;1.13;0.30;;;;;;;;;;5052645;28;20118;-57
2021/12/30 11:36:23;;;;;;;0.32;0.10;;;;;;;;;;5052233;28;20043;-56
2021/12/30 11:38:49;;;;;;;0.00;0.00;;;;;;;;;;5052307;28;20065;-57
2021/12/30 11:41:19;;;;;;;0.30;0.20;;;;;;;;;;5050935;28;20118;-57
2021/12/30 11:43:46;;;;;;;0.52;0.13;;;;;;;;;;5052926;28;20036;-56
2021/12/30 11:46:30;;;;;;;0.10;0.00;;;;;;;;;;5046114;28;20360;-56
2021/12/30 11:48:57;;;;;;;0.43;0.25;;;;;;;;;;5049652;28;20090;-56
2021/12/30 11:51:23;;;;;;;0.17;0.10;;;;;;;;;;5051978;28;20055;-57
2021/12/30 11:53:52;;;;;;;0.28;0.10;;;;;;;;;;5047285;28;20044;-57
2021/12/30 11:56:18;;;;;;;0.10;0.00;;;;;;;;;;5049613;28;20044;-57
2021/12/30 11:58:48;;;;;;;0.00;0.00;;;;;;;;;;5045070;28;20029;-57
2021/12/30 12:01:14;;;;;;;0.10;0.00;;;;;;;;;;5050699;28;20029;-55
2021/12/30 12:03:43;;;;;;;0.13;0.10;;;;;;;;;;5049698;28;20371;-56
2021/12/30 12:06:24;;;;;;;0.10;0.00;;;;;;;;;;5049452;28;20033;-56
2021/12/30 12:08:56;;;;;;;0.47;0.17;;;;;;;;;;5050040;28;20128;-56
2021/12/30 12:11:26;;;;;;;0.20;0.10;;;;;;;;;;5051630;28;20032;-55
2021/12/30 12:13:54;;;;;;;0.20;0.00;;;;;;;;;;5051858;28;20443;-55
2021/12/30 12:16:39;;;;;;;0.50;0.08;;;;;;;;;;5050746;28;20033;-56
2021/12/30 12:19:10;;;;;;;0.17;0.08;;;;;;;;;;5049493;28;20021;-57
2021/12/30 12:21:43;;;;;;;0.30;0.10;;;;;;;;;;5050243;28;20529;-56
2021/12/30 12:24:21;;;;;;;0.10;0.08;;;;;;;;;;5051961;28;20051;-56
2021/12/30 12:26:49;;;;;;;0.20;0.10;;;;;;;;;;5050890;28;20148;-57
2021/12/30 12:29:29;;;;;;;0.43;0.17;;;;;;;;;;5049626;28;20114;-57
2021/12/30 12:31:56;;;;;;;0.20;0.00;;;;;;;;;;5051279;28;20036;-57
2021/12/30 12:34:37;;;;;;;0.30;0.10;;;;;;;;;;5051962;28;20036;-57
2021/12/30 12:37:03;;;;;;;0.00;0.00;;;;;;;;;;5051221;28;20112;-56
2021/12/30 12:39:33;;;;;;;0.22;0.10;;;;;;;;;;5051070;28;20078;-58
2021/12/30 12:41:59;;;;;;;0.03;0.03;;;;;;;;;;5045253;28;20405;-58
2021/12/30 12:44:25;;;;;;;0.30;0.10;;;;;;;;;;5049048;28;20028;-57
2021/12/30 12:46:52;;;;;;;0.13;0.00;;;;;;;;;;5050203;28;20036;-56
2021/12/30 12:49:33;;;;;;;0.52;0.13;;;;;;;;;;5055566;28;20119;-57
2021/12/30 12:51:59;;;;;;;0.20;0.10;;;;;;;;;;5060295;28;20025;-57
2021/12/30 12:54:36;;;;;;;0.08;0.00;;;;;;;;;;5051882;28;20033;-57
2021/12/30 12:57:15;;;;;;;0.28;0.10;;;;;;;;;;5051506;28;20029;-57
2021/12/30 12:59:41;;;;;;;0.57;0.10;;;;;;;;;;5041326;28;20400;-57
2021/12/30 13:02:09;;;;;;;0.00;0.00;;;;;;;;;;5048344;28;20036;-57
2021/12/30 13:04:36;;;;;;;0.00;0.00;;;;;;;;;;5050819;28;20303;-56
2021/12/30 13:07:15;;;;;;;2.08;0.88;;;;;;;;;;5051072;28;20025;-57
2021/12/30 13:09:45;;;;;;;0.10;0.00;;;;;;;;;;5050038;28;20086;-57
2021/12/30 13:12:11;;;;;;;0.40;0.10;;;;;;;;;;5051029;28;20017;-56
2021/12/30 13:14:43;;;;;;;1.13;0.30;;;;;;;;;;5051423;28;20032;-57
2021/12/30 13:17:10;;;;;;;0.80;0.28;;;;;;;;;;5048851;28;20076;-55
2021/12/30 13:19:38;;;;;;;0.47;0.20;;;;;;;;;;5050456;28;20022;-56
2021/12/30 13:22:05;;;;;;;0.10;0.03;;;;;;;;;;5050866;28;20114;-58
2021/12/30 13:24:38;;;;;;;0.40;0.15;;;;;;;;;;5051552;28;20029;-58
2021/12/30 13:27:24;;;;;;;0.85;0.30;;;;;;;;;;5049949;28;20522;-58
2021/12/30 13:29:56;;;;;;;0.40;0.17;;;;;;;;;;5050546;28;20036;-57
2021/12/30 13:32:26;;;;;;;1.00;0.20;;;;;;;;;;5050306;28;20025;-57
2021/12/30 13:35:04;;;;;;;0.82;0.10;;;;;;;;;;5042595;28;20052;-57
2021/12/30 13:37:36;;;;;;;0.25;0.10;;;;;;;;;;5050606;28;20498;-57
2021/12/30 13:40:03;;;;;;;0.40;0.10;;;;;;;;;;5050095;28;20100;-57
2021/12/30 13:42:31;;;;;;;0.10;0.10;;;;;;;;;;5050117;28;20483;-58
2021/12/30 13:44:59;;;;;;;0.63;0.30;;;;;;;;;;5048465;28;20028;-58
2021/12/30 13:47:31;;;;;;;0.35;0.13;;;;;;;;;;5054481;28;20047;-58
2021/12/30 13:49:58;;;;;;;2.65;0.20;;;;;;;;;;5049750;28;20053;-58
2021/12/30 13:52:25;;;;;;;0.32;0.10;;;;;;;;;;5048880;28;20092;-56
2021/12/30 13:55:10;;;;;;;0.32;0.13;;;;;;;;;;5051943;28;20028;-58
2021/12/30 13:57:37;;;;;;;0.25;0.10;;;;;;;;;;5047190;28;20029;-56
2021/12/30 14:00:06;;;;;;;1.08;0.30;;;;;;;;;;5053848;28;20060;-56
2021/12/30 14:02:32;;;;;;;0.45;0.22;;;;;;;;;;5054092;28;20032;-57
2021/12/30 14:05:06;;;;;;;0.35;0.15;;;;;;;;;;5053944;28;20036;-55
2021/12/30 14:07:33;;;;;;;0.68;0.40;;;;;;;;;;5045116;28;20065;-55
2021/12/30 14:09:59;;;;;;;2.13;0.40;;;;;;;;;;5051616;28;20033;-57
2021/12/30 14:12:25;;;;;;;0.30;0.15;;;;;;;;;;5053978;28;20092;-56
2021/12/30 14:14:51;;;;;;;0.50;0.20;;;;;;;;;;5053501;28;20701;-57
2021/12/30 14:17:17;;;;;;;0.40;0.20;;;;;;;;;;5054165;28;20064;-56
2021/12/30 14:19:49;;;;;;;1.13;0.40;;;;;;;;;;5053514;28;20040;-57
2021/12/30 14:22:15;;;;;;;0.80;0.30;;;;;;;;;;5051642;28;20033;-56
2021/12/30 14:24:41;;;;;;;0.50;0.20;;;;;;;;;;5047416;28;20025;-56
2021/12/30 14:27:17;;;;;;;0.82;0.30;;;;;;;;;;5052996;28;20075;-57
2021/12/30 14:29:43;;;;;;;0.65;0.30;;;;;;;;;;5044627;28;20036;-56
2021/12/30 14:32:11;;;;;;;1.30;0.43;;;;;;;;;;5049607;28;20037;-56
2021/12/30 14:34:49;;;;;;;0.38;0.15;;;;;;;;;;5051367;28;20025;-56
2021/12/30 14:37:24;;;;;;;0.60;0.30;;;;;;;;;;5039766;28;20854;-57
2021/12/30 14:39:54;;;;;;;0.73;0.28;;;;;;;;;;5056345;28;20033;-55
2021/12/30 14:42:24;;;;;;;1.02;0.43;;;;;;;;;;5046254;28;20417;-56
2021/12/30 14:44:58;;;;;;;3.53;0.30;;;;;;;;;;5055381;28;20033;-56
2021/12/30 14:47:27;;;;;;;0.73;0.30;;;;;;;;;;5065146;28;20036;-56